createdAt,value
2019-02-23T00:00:26.435Z,0
2019-02-23T00:01:27.679Z,0
2019-02-23T00:02:28.367Z,0
2019-02-23T00:03:28.778Z,0
2019-02-23T00:04:30.263Z,0
2019-02-23T00:05:30.678Z,0
2019-02-23T00:06:31.704Z,0
2019-02-23T00:07:32.701Z,0
2019-02-23T00:08:33.109Z,0
2019-02-23T00:09:33.798Z,0
2019-02-23T00:10:35.224Z,0
2019-02-23T00:11:35.657Z,0
2019-02-23T00:12:36.351Z,0
2019-02-23T00:13:37.641Z,0
2019-02-23T00:14:37.779Z,0
2019-02-23T00:15:38.203Z,0
2019-02-23T00:16:39.446Z,0
2019-02-23T00:17:39.863Z,0
2019-02-23T00:18:40.548Z,0
2019-02-23T00:19:40.518Z,0
2019-02-23T00:20:41.497Z,0
2019-02-23T00:21:41.635Z,0
2019-02-23T00:22:42.331Z,0
2019-02-23T00:23:42.741Z,0
2019-02-23T00:24:43.874Z,0
2019-02-23T00:25:45.292Z,0
2019-02-23T00:26:45.428Z,0
2019-02-23T00:27:46.391Z,0
2019-02-23T00:28:46.526Z,0
2019-02-23T00:29:48.775Z,0
2019-02-23T00:30:50.148Z,0
2019-02-23T00:31:49.558Z,0
2019-02-23T00:32:51.012Z,0
2019-02-23T00:33:51.700Z,0
2019-02-23T00:34:52.389Z,0
2019-02-23T00:35:53.911Z,0
2019-02-23T00:36:54.638Z,0
2019-02-23T00:37:54.769Z,0
2019-02-23T00:38:55.460Z,0
2019-02-23T00:39:55.594Z,0
2019-02-23T00:40:56.413Z,0
2019-02-23T00:41:57.380Z,0
2019-02-23T00:42:58.069Z,0
2019-02-23T00:43:58.479Z,0
2019-02-23T00:44:59.443Z,0
2019-02-23T00:45:59.311Z,0
2019-02-23T00:47:00.446Z,0
2019-02-23T00:48:01.212Z,0
2019-02-23T00:49:01.638Z,0
2019-02-23T00:50:02.613Z,0
2019-02-23T00:51:03.156Z,0
2019-02-23T00:52:04.134Z,0
2019-02-23T00:53:05.375Z,0
2019-02-23T00:54:05.509Z,0
2019-02-23T00:55:06.497Z,0
2019-02-23T00:56:07.230Z,0
2019-02-23T00:57:08.202Z,0
2019-02-23T00:58:09.167Z,0
2019-02-23T00:59:09.302Z,0
2019-02-23T01:00:10.434Z,0
2019-02-23T01:01:11.288Z,0
2019-02-23T01:02:14.067Z,0
2019-02-23T01:03:14.199Z,0
2019-02-23T01:04:14.964Z,0
2019-02-23T01:05:15.736Z,0
2019-02-23T01:06:15.868Z,0
2019-02-23T01:07:16.277Z,0
2019-02-23T01:08:16.983Z,0
2019-02-23T01:09:17.395Z,0
2019-02-23T01:10:21.651Z,0
2019-02-23T01:11:22.346Z,0
2019-02-23T01:12:22.759Z,0
2019-02-23T01:13:23.733Z,0
2019-02-23T01:14:23.865Z,0
2019-02-23T01:15:25.273Z,0
2019-02-23T01:16:25.699Z,0
2019-02-23T01:17:26.663Z,0
2019-02-23T01:18:27.079Z,0
2019-02-23T01:19:27.323Z,0
2019-02-23T01:20:27.461Z,0
2019-02-23T01:21:28.282Z,0
2019-02-23T01:22:28.693Z,0
2019-02-23T01:23:29.666Z,0
2019-02-23T01:24:30.630Z,0
2019-02-23T01:25:30.596Z,0
2019-02-23T01:26:31.804Z,0
2019-02-23T01:27:32.492Z,0
2019-02-23T01:28:32.741Z,0
2019-02-23T01:29:32.872Z,0
2019-02-23T01:30:34.845Z,0
2019-02-23T01:31:34.944Z,0
2019-02-23T01:32:34.910Z,0
2019-02-23T01:33:35.404Z,0
2019-02-23T01:34:37.090Z,0
2019-02-23T01:35:37.221Z,0
2019-02-23T01:36:38.922Z,0
2019-02-23T01:37:39.336Z,0
2019-02-23T01:38:40.032Z,0
2019-02-23T01:39:40.735Z,0
2019-02-23T01:40:41.423Z,0
2019-02-23T01:41:41.632Z,0
2019-02-23T01:42:42.044Z,0
2019-02-23T01:43:42.727Z,0
2019-02-23T01:44:43.440Z,0
2019-02-23T01:45:44.743Z,0
2019-02-23T01:46:45.152Z,0
2019-02-23T01:47:46.562Z,0
2019-02-23T01:48:46.973Z,0
2019-02-23T01:50:00.715Z,0
2019-02-23T01:51:00.535Z,0
2019-02-23T01:52:01.785Z,0
2019-02-23T01:53:01.476Z,0
2019-02-23T01:54:02.734Z,0
2019-02-23T01:55:03.424Z,0
2019-02-23T01:56:04.112Z,0
2019-02-23T01:57:05.175Z,0
2019-02-23T01:58:05.875Z,0
2019-02-23T01:59:06.561Z,0
2019-02-23T02:00:08.247Z,0
2019-02-23T02:01:08.782Z,0
2019-02-23T02:02:09.197Z,0
2019-02-23T02:03:09.894Z,0
2019-02-23T02:04:10.626Z,0
2019-02-23T02:05:12.151Z,0
2019-02-23T02:06:13.117Z,0
2019-02-23T02:07:13.252Z,0
2019-02-23T02:08:14.665Z,0
2019-02-23T02:09:15.353Z,0
2019-02-23T02:10:16.362Z,0
2019-02-23T02:11:16.458Z,0
2019-02-23T02:12:17.880Z,0
2019-02-23T02:13:19.405Z,0
2019-02-23T02:14:19.537Z,0
2019-02-23T02:15:20.671Z,0
2019-02-23T02:16:22.072Z,0
2019-02-23T02:17:23.315Z,0
2019-02-23T02:18:23.725Z,0
2019-02-23T02:19:25.441Z,0
2019-02-23T02:20:26.558Z,0
2019-02-23T02:21:27.105Z,0
2019-02-23T02:22:28.511Z,0
2019-02-23T02:23:29.199Z,0
2019-02-23T02:24:30.212Z,0
2019-02-23T02:25:30.907Z,0
2019-02-23T02:26:31.315Z,0
2019-02-23T02:27:31.726Z,0
2019-02-23T02:28:33.138Z,0
2019-02-23T02:29:33.836Z,0
2019-02-23T02:30:34.526Z,0
2019-02-23T02:31:35.344Z,0
2019-02-23T02:32:35.876Z,0
2019-02-23T02:33:37.125Z,0
2019-02-23T02:34:37.816Z,0
2019-02-23T02:35:37.798Z,0
2019-02-23T02:36:38.517Z,0
2019-02-23T02:37:39.486Z,0
2019-02-23T02:38:39.173Z,0
2019-02-23T02:39:40.137Z,0
2019-02-23T02:40:41.436Z,0
2019-02-23T02:41:41.855Z,0
2019-02-23T02:42:42.823Z,0
2019-02-23T02:43:43.806Z,0
2019-02-23T02:44:45.049Z,0
2019-02-23T02:45:46.024Z,0
2019-02-23T02:46:46.834Z,0
2019-02-23T02:47:47.411Z,0
2019-02-23T02:48:47.662Z,0
2019-02-23T02:49:48.660Z,0
2019-02-23T02:50:49.073Z,0
2019-02-23T02:51:50.779Z,0
2019-02-23T02:52:50.916Z,0
2019-02-23T02:53:51.883Z,0
2019-02-23T02:54:52.572Z,0
2019-02-23T02:55:54.265Z,0
2019-02-23T02:56:54.505Z,0
2019-02-23T02:57:55.479Z,0
2019-02-23T02:58:56.454Z,0
2019-02-23T02:59:55.879Z,0
2019-02-23T03:00:57.011Z,0
2019-02-23T03:02:00.597Z,0
2019-02-23T03:03:01.596Z,0
2019-02-23T03:04:01.596Z,0
2019-02-23T03:05:02.561Z,0
2019-02-23T03:06:03.264Z,0
2019-02-23T03:07:04.246Z,0
2019-02-23T03:08:05.765Z,0
2019-02-23T03:09:06.177Z,0
2019-02-23T03:10:07.483Z,0
2019-02-23T03:11:07.918Z,0
2019-02-23T03:12:09.139Z,0
2019-02-23T03:13:10.136Z,0
2019-02-23T03:14:11.100Z,0
2019-02-23T03:15:11.234Z,0
2019-02-23T03:16:11.969Z,0
2019-02-23T03:17:11.700Z,0
2019-02-23T03:18:12.938Z,0
2019-02-23T03:19:13.900Z,0
2019-02-23T03:20:14.410Z,0
2019-02-23T03:21:15.379Z,0
2019-02-23T03:22:16.201Z,0
2019-02-23T03:23:17.450Z,0
2019-02-23T03:24:17.141Z,0
2019-02-23T03:25:18.137Z,0
2019-02-23T03:26:19.011Z,0
2019-02-23T03:27:19.984Z,0
2019-02-23T03:28:19.719Z,0
2019-02-23T03:29:20.695Z,0
2019-02-23T03:30:21.749Z,0
2019-02-23T03:31:22.891Z,0
2019-02-23T03:32:24.027Z,0
2019-02-23T03:33:25.164Z,0
2019-02-23T03:34:25.414Z,0
2019-02-23T03:35:26.381Z,0
2019-02-23T03:36:27.344Z,0
2019-02-23T03:37:28.127Z,0
2019-02-23T03:38:28.259Z,0
2019-02-23T03:39:30.506Z,0
2019-02-23T03:40:30.801Z,0
2019-02-23T03:41:31.766Z,0
2019-02-23T03:42:33.231Z,0
2019-02-23T03:43:33.204Z,0
2019-02-23T03:44:34.169Z,0
2019-02-23T03:45:35.133Z,0
2019-02-23T03:46:35.828Z,0
2019-02-23T03:47:36.514Z,0
2019-02-23T03:48:38.035Z,0
2019-02-23T03:49:37.725Z,0
2019-02-23T03:50:51.524Z,0
2019-02-23T03:51:52.459Z,0
2019-02-23T03:52:53.425Z,0
2019-02-23T03:53:54.404Z,0
2019-02-23T03:54:55.094Z,0
2019-02-23T03:55:55.783Z,0
2019-02-23T03:56:56.553Z,0
2019-02-23T03:57:57.800Z,0
2019-02-23T03:58:59.599Z,0
2019-02-23T04:00:00.226Z,0
2019-02-23T04:01:01.670Z,0
2019-02-23T04:02:02.361Z,0
2019-02-23T04:03:02.895Z,0
2019-02-23T04:04:03.057Z,0
2019-02-23T04:05:04.034Z,0
2019-02-23T04:06:04.734Z,0
2019-02-23T04:07:05.698Z,0
2019-02-23T04:08:06.395Z,0
2019-02-23T04:09:06.821Z,0
2019-02-23T04:10:07.812Z,0
2019-02-23T04:11:08.502Z,0
2019-02-23T04:12:09.329Z,0
2019-02-23T04:13:10.328Z,0
2019-02-23T04:14:10.741Z,0
2019-02-23T04:15:11.466Z,0
2019-02-23T04:16:12.444Z,0
2019-02-23T04:17:12.764Z,0
2019-02-23T04:18:14.011Z,0
2019-02-23T04:19:13.990Z,0
2019-02-23T04:20:15.398Z,0
2019-02-23T04:21:16.368Z,0
2019-02-23T04:22:16.497Z,0
2019-02-23T04:23:18.576Z,0
2019-02-23T04:24:18.544Z,0
2019-02-23T04:25:19.510Z,0
2019-02-23T04:26:20.197Z,0
2019-02-23T04:27:20.888Z,0
2019-02-23T04:28:21.294Z,0
2019-02-23T04:29:23.282Z,0
2019-02-23T04:30:23.415Z,0
2019-02-23T04:31:24.117Z,0
2019-02-23T04:32:26.280Z,0
2019-02-23T04:33:26.527Z,0
2019-02-23T04:34:27.205Z,0
2019-02-23T04:35:27.359Z,0
2019-02-23T04:36:28.046Z,0
2019-02-23T04:37:29.300Z,0
2019-02-23T04:38:29.701Z,0
2019-02-23T04:39:30.108Z,0
2019-02-23T04:40:31.344Z,0
2019-02-23T04:41:32.038Z,0
2019-02-23T04:42:33.706Z,0
2019-02-23T04:43:34.133Z,0
2019-02-23T04:44:35.101Z,0
2019-02-23T04:45:36.089Z,0
2019-02-23T04:46:37.053Z,0
2019-02-23T04:47:38.123Z,0
2019-02-23T04:48:38.145Z,0
2019-02-23T04:49:38.830Z,0
2019-02-23T04:50:40.350Z,0
2019-02-23T04:51:41.632Z,0
2019-02-23T04:52:42.327Z,0
2019-02-23T04:53:41.474Z,0
2019-02-23T04:54:42.613Z,0
2019-02-23T04:55:43.300Z,0
2019-02-23T04:56:44.267Z,0
2019-02-23T04:57:44.232Z,0
2019-02-23T04:58:45.646Z,0
2019-02-23T04:59:46.612Z,0
2019-02-23T05:00:47.303Z,0
2019-02-23T05:01:47.771Z,0
2019-02-23T05:02:48.469Z,0
2019-02-23T05:03:48.878Z,0
2019-02-23T05:04:49.291Z,0
2019-02-23T05:05:49.977Z,0
2019-02-23T05:06:50.964Z,0
2019-02-23T05:07:50.931Z,0
2019-02-23T05:08:51.620Z,0
2019-02-23T05:09:52.860Z,0
2019-02-23T05:10:53.540Z,0
2019-02-23T05:11:54.500Z,0
2019-02-23T05:12:54.949Z,0
2019-02-23T05:13:56.197Z,0
2019-02-23T05:14:57.446Z,0
2019-02-23T05:15:57.709Z,0
2019-02-23T05:16:58.125Z,0
2019-02-23T05:17:59.391Z,0
2019-02-23T05:19:00.352Z,0
2019-02-23T05:20:00.914Z,0
2019-02-23T05:21:00.598Z,0
2019-02-23T05:22:01.880Z,0
2019-02-23T05:23:02.710Z,0
2019-02-23T05:24:04.527Z,0
2019-02-23T05:25:04.935Z,0
2019-02-23T05:26:05.906Z,0
2019-02-23T05:27:06.594Z,0
2019-02-23T05:28:07.563Z,0
2019-02-23T05:29:09.106Z,0
2019-02-23T05:30:09.086Z,0
2019-02-23T05:31:10.336Z,0
2019-02-23T05:32:10.772Z,0
2019-02-23T05:33:11.938Z,0
2019-02-23T05:34:12.067Z,0
2019-02-23T05:35:12.826Z,0
2019-02-23T05:36:13.232Z,0
2019-02-23T05:37:14.198Z,0
2019-02-23T05:38:15.187Z,0
2019-02-23T05:39:18.509Z,0
2019-02-23T05:40:16.491Z,0
2019-02-23T05:41:16.901Z,0
2019-02-23T05:42:18.164Z,0
2019-02-23T05:43:03.237Z,4
2019-02-23T05:44:03.937Z,4
2019-02-23T05:45:04.668Z,0
2019-02-23T05:46:05.635Z,0
2019-02-23T05:47:05.599Z,4
2019-02-23T05:48:07.015Z,4
2019-02-23T05:49:07.265Z,4
2019-02-23T05:50:07.759Z,4
2019-02-23T05:51:08.743Z,4
2019-02-23T05:52:08.703Z,8
2019-02-23T05:53:09.176Z,4
2019-02-23T05:54:11.110Z,8
2019-02-23T05:55:11.415Z,8
2019-02-23T05:56:18.655Z,8
2019-02-23T05:56:24.425Z,8
2019-02-23T05:57:24.986Z,12
2019-02-23T05:58:25.404Z,12
2019-02-23T05:59:26.650Z,16
2019-02-23T06:00:26.617Z,16
2019-02-23T06:01:27.186Z,20
2019-02-23T06:02:26.885Z,20
2019-02-23T06:03:28.400Z,24
2019-02-23T06:04:28.957Z,28
2019-02-23T06:05:29.440Z,28
2019-02-23T06:06:29.572Z,36
2019-02-23T06:07:30.670Z,36
2019-02-23T06:08:31.207Z,48
2019-02-23T06:09:32.180Z,56
2019-02-23T06:10:32.866Z,60
2019-02-23T06:11:33.273Z,64
2019-02-23T06:12:34.238Z,64
2019-02-23T06:13:34.923Z,72
2019-02-23T06:14:35.328Z,72
2019-02-23T06:15:35.736Z,80
2019-02-23T06:16:36.419Z,84
2019-02-23T06:17:36.553Z,92
2019-02-23T06:18:37.526Z,96
2019-02-23T06:19:39.064Z,100
2019-02-23T06:20:40.031Z,104
2019-02-23T06:21:56.124Z,112
2019-02-23T06:22:53.370Z,116
2019-02-23T06:23:53.060Z,124
2019-02-23T06:24:54.023Z,124
2019-02-23T06:25:54.444Z,140
2019-02-23T06:26:56.315Z,152
2019-02-23T06:27:56.855Z,152
2019-02-23T06:28:57.544Z,148
2019-02-23T06:29:57.672Z,148
2019-02-23T06:30:58.442Z,168
2019-02-23T06:31:59.715Z,200
2019-02-23T06:33:00.124Z,212
2019-02-23T06:34:00.814Z,220
2019-02-23T06:35:01.416Z,236
2019-02-23T06:36:02.937Z,224
2019-02-23T06:37:03.627Z,236
2019-02-23T06:38:04.040Z,256
2019-02-23T06:39:05.082Z,256
2019-02-23T06:40:06.054Z,264
2019-02-23T06:41:07.015Z,276
2019-02-23T06:42:07.423Z,292
2019-02-23T06:43:08.774Z,288
2019-02-23T06:44:10.012Z,288
2019-02-23T06:45:10.702Z,312
2019-02-23T06:46:11.389Z,304
2019-02-23T06:47:12.073Z,300
2019-02-23T06:48:13.041Z,312
2019-02-23T06:49:13.353Z,320
2019-02-23T06:50:15.600Z,328
2019-02-23T06:51:15.285Z,332
2019-02-23T06:52:15.991Z,344
2019-02-23T06:53:17.391Z,368
2019-02-23T06:54:18.087Z,356
2019-02-23T06:55:18.579Z,340
2019-02-23T06:56:19.266Z,352
2019-02-23T06:57:20.400Z,380
2019-02-23T06:58:21.648Z,400
2019-02-23T06:59:22.891Z,408
2019-02-23T07:00:22.864Z,396
2019-02-23T07:01:24.107Z,376
2019-02-23T07:02:24.812Z,368
2019-02-23T07:03:26.193Z,380
2019-02-23T07:04:26.162Z,396
2019-02-23T07:05:27.583Z,408
2019-02-23T07:06:28.281Z,416
2019-02-23T07:07:27.972Z,380
2019-02-23T07:08:28.968Z,360
2019-02-23T07:09:29.964Z,404
2019-02-23T07:10:30.209Z,420
2019-02-23T07:11:32.173Z,436
2019-02-23T07:12:31.583Z,428
2019-02-23T07:13:32.713Z,384
2019-02-23T07:14:32.854Z,388
2019-02-23T07:15:33.893Z,456
2019-02-23T07:16:34.300Z,468
2019-02-23T07:17:34.271Z,472
2019-02-23T07:18:34.683Z,532
2019-02-23T07:19:35.370Z,552
2019-02-23T07:20:49.374Z,556
2019-02-23T07:21:49.916Z,584
2019-02-23T07:22:50.327Z,584
2019-02-23T07:23:51.731Z,568
2019-02-23T07:24:52.137Z,548
2019-02-23T07:25:52.544Z,536
2019-02-23T07:26:53.324Z,560
2019-02-23T07:27:54.456Z,624
2019-02-23T07:28:55.137Z,656
2019-02-23T07:29:56.104Z,700
2019-02-23T07:30:57.642Z,724
2019-02-23T07:31:57.762Z,768
2019-02-23T07:32:58.446Z,820
2019-02-23T07:33:58.881Z,816
2019-02-23T07:34:59.681Z,820
2019-02-23T07:36:00.404Z,896
2019-02-23T07:37:01.092Z,952
2019-02-23T07:38:02.391Z,952
2019-02-23T07:39:02.532Z,956
2019-02-23T07:40:03.955Z,980
2019-02-23T07:41:04.478Z,1008
2019-02-23T07:42:04.601Z,1092
2019-02-23T07:43:06.291Z,1160
2019-02-23T07:44:06.979Z,1148
2019-02-23T07:45:08.113Z,1204
2019-02-23T07:46:08.523Z,1300
2019-02-23T07:47:08.930Z,1404
2019-02-23T07:48:10.340Z,1356
2019-02-23T07:49:11.028Z,1340
2019-02-23T07:50:12.563Z,1344
2019-02-23T07:51:12.057Z,1312
2019-02-23T07:52:13.446Z,1252
2019-02-23T07:53:13.688Z,1320
2019-02-23T07:54:14.659Z,1452
2019-02-23T07:55:15.636Z,1532
2019-02-23T07:56:16.887Z,1596
2019-02-23T07:57:18.130Z,1776
2019-02-23T07:58:18.548Z,1828
2019-02-23T07:59:19.231Z,1740
2019-02-23T08:00:20.488Z,1848
2019-02-23T08:01:20.177Z,2080
2019-02-23T08:02:21.295Z,2196
2019-02-23T08:03:23.323Z,2532
2019-02-23T08:04:24.016Z,2628
2019-02-23T08:05:25.270Z,2464
2019-02-23T08:06:25.681Z,2460
2019-02-23T08:07:26.096Z,2884
2019-02-23T08:08:26.785Z,3468
2019-02-23T08:09:27.267Z,3824
2019-02-23T08:10:28.243Z,4432
2019-02-23T08:11:29.489Z,4748
2019-02-23T08:12:29.305Z,5532
2019-02-23T08:13:29.517Z,9304
2019-02-23T08:14:31.208Z,13288
2019-02-23T08:15:30.906Z,12760
2019-02-23T08:16:32.163Z,10608
2019-02-23T08:17:32.360Z,8844
2019-02-23T08:18:32.490Z,8984
2019-02-23T08:19:32.903Z,7652
2019-02-23T08:20:33.596Z,7540
2019-02-23T08:21:34.843Z,6900
2019-02-23T08:22:39.197Z,6416
2019-02-23T08:23:40.626Z,5604
2019-02-23T08:24:41.083Z,4700
2019-02-23T08:25:41.496Z,4416
2019-02-23T08:26:42.185Z,4428
2019-02-23T08:27:42.668Z,4224
2019-02-23T08:28:43.689Z,3936
2019-02-23T08:29:44.117Z,3832
2019-02-23T08:30:45.526Z,3916
2019-02-23T08:31:45.663Z,3852
2019-02-23T08:32:46.609Z,4008
2019-02-23T08:33:47.149Z,4188
2019-02-23T08:34:48.115Z,4388
2019-02-23T08:35:49.027Z,4504
2019-02-23T08:36:49.440Z,4424
2019-02-23T08:37:50.407Z,3972
2019-02-23T08:38:50.824Z,3408
2019-02-23T08:39:52.233Z,3188
2019-02-23T08:40:52.641Z,3392
2019-02-23T08:41:53.613Z,3416
2019-02-23T08:42:55.003Z,3076
2019-02-23T08:43:55.690Z,2820
2019-02-23T08:44:56.134Z,2660
2019-02-23T08:45:57.267Z,2592
2019-02-23T08:46:57.965Z,2560
2019-02-23T08:47:58.653Z,2628
2019-02-23T08:49:00.064Z,2792
2019-02-23T08:50:01.358Z,2888
2019-02-23T08:51:01.503Z,3000
2019-02-23T08:52:02.471Z,3240
2019-02-23T08:53:03.424Z,3468
2019-02-23T08:54:03.595Z,3564
2019-02-23T08:55:05.009Z,3536
2019-02-23T08:56:05.695Z,3448
2019-02-23T08:57:06.472Z,3348
2019-02-23T08:58:06.885Z,3340
2019-02-23T08:59:07.856Z,3420
2019-02-23T09:00:08.551Z,3468
2019-02-23T09:01:09.000Z,3464
2019-02-23T09:02:10.000Z,3428
2019-02-23T09:03:09.887Z,3488
2019-02-23T09:04:11.130Z,3704
2019-02-23T09:05:11.820Z,3936
2019-02-23T09:06:12.242Z,4096
2019-02-23T09:07:12.925Z,4156
2019-02-23T09:08:13.617Z,4212
2019-02-23T09:09:14.304Z,4156
2019-02-23T09:10:15.560Z,4108
2019-02-23T09:11:15.970Z,4200
2019-02-23T09:12:17.107Z,4232
2019-02-23T09:13:18.093Z,4280
2019-02-23T09:14:18.361Z,4488
2019-02-23T09:15:18.767Z,4532
2019-02-23T09:16:19.499Z,4184
2019-02-23T09:17:20.199Z,3888
2019-02-23T09:18:21.168Z,3912
2019-02-23T09:19:22.134Z,3848
2019-02-23T09:20:34.645Z,3696
2019-02-23T09:21:34.780Z,3528
2019-02-23T09:22:35.471Z,3472
2019-02-23T09:23:36.438Z,3260
2019-02-23T09:24:37.126Z,2928
2019-02-23T09:25:38.813Z,2716
2019-02-23T09:26:39.233Z,2668
2019-02-23T09:27:40.209Z,2660
2019-02-23T09:28:40.410Z,2736
2019-02-23T09:29:41.649Z,2812
2019-02-23T09:30:41.348Z,2764
2019-02-23T09:31:42.172Z,2704
2019-02-23T09:32:42.858Z,2816
2019-02-23T09:33:43.565Z,2980
2019-02-23T09:34:44.262Z,3136
2019-02-23T09:35:45.293Z,3176
2019-02-23T09:36:47.947Z,3332
2019-02-23T09:37:48.929Z,3780
2019-02-23T09:38:49.075Z,4224
2019-02-23T09:39:49.486Z,4480
2019-02-23T09:40:50.737Z,4944
2019-02-23T09:41:50.924Z,5368
2019-02-23T09:42:52.170Z,5184
2019-02-23T09:43:52.694Z,4692
2019-02-23T09:44:53.096Z,4348
2019-02-23T09:45:53.785Z,4384
2019-02-23T09:46:53.926Z,4556
2019-02-23T09:47:55.635Z,4672
2019-02-23T09:48:58.052Z,4476
2019-02-23T09:49:58.746Z,4188
2019-02-23T09:50:59.707Z,3896
2019-02-23T09:52:00.549Z,4072
2019-02-23T09:53:13.296Z,3696
2019-02-23T09:54:13.841Z,3104
2019-02-23T09:55:14.814Z,3180
2019-02-23T09:56:14.783Z,3420
2019-02-23T09:57:15.477Z,3252
2019-02-23T09:58:17.164Z,3172
2019-02-23T09:59:17.852Z,3224
2019-02-23T10:00:18.548Z,3140
2019-02-23T10:01:20.042Z,2932
2019-02-23T10:02:21.024Z,2972
2019-02-23T10:03:21.720Z,3060
2019-02-23T10:04:23.122Z,3148
2019-02-23T10:05:23.811Z,3248
2019-02-23T10:06:25.057Z,3484
2019-02-23T10:07:25.748Z,3520
2019-02-23T10:08:25.881Z,3348
2019-02-23T10:09:27.585Z,3832
2019-02-23T10:10:27.280Z,4284
2019-02-23T10:11:28.530Z,4420
2019-02-23T10:12:29.215Z,4620
2019-02-23T10:13:30.187Z,4624
2019-02-23T10:14:30.448Z,4388
2019-02-23T10:15:30.938Z,4016
2019-02-23T10:16:31.625Z,3836
2019-02-23T10:17:32.594Z,3764
2019-02-23T10:18:33.009Z,3800
2019-02-23T10:19:34.143Z,3220
2019-02-23T10:20:35.745Z,3404
2019-02-23T10:21:35.948Z,4072
2019-02-23T10:22:36.359Z,3976
2019-02-23T10:23:37.499Z,3944
2019-02-23T10:24:38.319Z,3820
2019-02-23T10:25:39.367Z,4060
2019-02-23T10:26:40.056Z,3940
2019-02-23T10:27:40.506Z,4772
2019-02-23T10:28:41.642Z,4916
2019-02-23T10:29:43.052Z,4584
2019-02-23T10:30:43.471Z,4664
2019-02-23T10:31:44.884Z,5288
2019-02-23T10:32:46.575Z,5664
2019-02-23T10:33:49.320Z,6244
2019-02-23T10:34:50.741Z,5496
2019-02-23T10:35:51.163Z,5764
2019-02-23T10:36:52.413Z,5436
2019-02-23T10:37:53.380Z,5572
2019-02-23T10:38:53.796Z,5520
2019-02-23T10:39:54.486Z,5180
2019-02-23T10:40:55.618Z,4928
2019-02-23T10:41:56.591Z,4764
2019-02-23T10:42:57.636Z,4980
2019-02-23T10:43:57.874Z,5256
2019-02-23T10:44:58.724Z,5688
2019-02-23T10:45:59.875Z,7424
2019-02-23T10:47:00.294Z,8168
2019-02-23T10:48:00.720Z,7328
2019-02-23T10:49:01.711Z,6148
2019-02-23T10:50:02.378Z,5612
2019-02-23T10:51:02.128Z,5244
2019-02-23T10:52:03.097Z,5232
2019-02-23T10:53:04.861Z,5020
2019-02-23T10:54:05.276Z,4852
2019-02-23T10:55:06.742Z,4616
2019-02-23T10:56:06.991Z,4132
2019-02-23T10:57:07.961Z,3808
2019-02-23T10:58:07.928Z,3820
2019-02-23T10:59:08.081Z,3732
2019-02-23T11:00:09.773Z,3444
2019-02-23T11:01:10.752Z,3384
2019-02-23T11:02:11.163Z,3404
2019-02-23T11:03:12.571Z,3684
2019-02-23T11:04:13.260Z,3864
2019-02-23T11:05:13.590Z,4972
2019-02-23T11:06:15.281Z,5668
2019-02-23T11:07:15.787Z,4752
2019-02-23T11:08:16.753Z,4924
2019-02-23T11:09:17.169Z,5580
2019-02-23T11:10:17.851Z,8072
2019-02-23T11:11:18.548Z,11068
2019-02-23T11:12:19.240Z,7088
2019-02-23T11:13:19.653Z,7088
2019-02-23T11:14:21.171Z,7952
2019-02-23T11:15:21.710Z,8420
2019-02-23T11:16:22.119Z,9092
2019-02-23T11:17:22.534Z,13336
2019-02-23T11:18:22.961Z,8340
2019-02-23T11:19:24.150Z,6252
2019-02-23T11:20:25.115Z,7756
2019-02-23T11:21:26.087Z,10724
2019-02-23T11:22:27.067Z,15712
2019-02-23T11:23:28.592Z,22112
2019-02-23T11:24:28.005Z,8296
2019-02-23T11:25:28.334Z,7064
2019-02-23T11:26:29.303Z,7528
2019-02-23T11:27:29.994Z,8284
2019-02-23T11:28:30.406Z,8852
2019-02-23T11:29:32.890Z,7856
2019-02-23T11:30:32.304Z,6580
2019-02-23T11:31:32.721Z,6412
2019-02-23T11:32:33.854Z,6348
2019-02-23T11:33:35.549Z,6364
2019-02-23T11:34:35.801Z,6416
2019-02-23T11:35:36.383Z,6116
2019-02-23T11:36:37.080Z,5848
2019-02-23T11:37:37.217Z,5904
2019-02-23T11:38:38.355Z,6176
2019-02-23T11:39:38.767Z,6620
2019-02-23T11:40:39.949Z,7460
2019-02-23T11:41:41.082Z,8896
2019-02-23T11:42:42.502Z,9228
2019-02-23T11:43:43.197Z,10060
2019-02-23T11:44:43.615Z,11760
2019-02-23T11:45:44.437Z,14752
2019-02-23T11:47:02.452Z,15936
2019-02-23T11:48:00.556Z,13316
2019-02-23T11:49:00.686Z,13148
2019-02-23T11:50:01.596Z,18432
2019-02-23T11:51:01.837Z,11768
2019-02-23T11:52:01.973Z,11828
2019-02-23T11:53:02.947Z,11596
2019-02-23T11:54:03.643Z,12256
2019-02-23T11:55:04.337Z,10632
2019-02-23T11:56:04.031Z,10140
2019-02-23T11:57:05.722Z,10252
2019-02-23T11:58:06.542Z,9844
2019-02-23T11:59:06.956Z,10368
2019-02-23T12:00:08.093Z,10796
2019-02-23T12:01:09.509Z,14640
2019-02-23T12:02:09.927Z,19136
2019-02-23T12:03:10.624Z,14220
2019-02-23T12:04:11.114Z,12544
2019-02-23T12:05:11.807Z,16288
2019-02-23T12:06:12.384Z,28736
2019-02-23T12:07:12.800Z,33440
2019-02-23T12:08:13.618Z,25184
2019-02-23T12:09:14.637Z,23232
2019-02-23T12:10:15.609Z,14992
2019-02-23T12:11:15.592Z,13084
2019-02-23T12:12:16.308Z,19744
2019-02-23T12:13:16.466Z,18816
2019-02-23T12:14:17.719Z,21376
2019-02-23T12:15:18.001Z,22560
2019-02-23T12:16:18.421Z,25856
2019-02-23T12:17:19.837Z,17440
2019-02-23T12:18:20.237Z,20032
2019-02-23T12:19:20.934Z,19712
2019-02-23T12:20:22.185Z,24288
2019-02-23T12:21:22.164Z,13184
2019-02-23T12:22:22.584Z,14636
2019-02-23T12:23:23.289Z,16032
2019-02-23T12:24:24.264Z,15968
2019-02-23T12:25:24.407Z,16896
2019-02-23T12:26:25.827Z,16512
2019-02-23T12:27:26.246Z,19296
2019-02-23T12:28:27.018Z,21504
2019-02-23T12:29:27.427Z,17536
2019-02-23T12:30:28.143Z,16864
2019-02-23T12:31:28.561Z,19008
2019-02-23T12:32:29.537Z,16800
2019-02-23T12:33:29.959Z,18016
2019-02-23T12:34:30.995Z,19040
2019-02-23T12:35:31.415Z,17344
2019-02-23T12:36:32.831Z,9656
2019-02-23T12:37:32.971Z,7804
2019-02-23T12:38:33.531Z,7716
2019-02-23T12:39:33.951Z,7624
2019-02-23T12:40:35.371Z,17792
2019-02-23T12:41:35.791Z,18048
2019-02-23T12:42:36.491Z,18912
2019-02-23T12:43:37.185Z,18944
2019-02-23T12:44:38.159Z,19296
2019-02-23T12:45:39.228Z,18912
2019-02-23T12:46:40.479Z,18944
2019-02-23T12:47:40.904Z,19136
2019-02-23T12:48:41.398Z,18688
2019-02-23T12:49:42.375Z,16480
2019-02-23T12:50:43.374Z,15872
2019-02-23T12:51:44.419Z,15936
2019-02-23T12:52:44.838Z,15744
2019-02-23T12:53:45.268Z,16032
2019-02-23T12:54:46.412Z,16128
2019-02-23T12:55:47.554Z,16192
2019-02-23T12:56:48.248Z,16256
2019-02-23T12:57:49.388Z,17184
2019-02-23T12:58:50.509Z,20576
2019-02-23T12:59:51.929Z,20128
2019-02-23T13:00:52.637Z,20160
2019-02-23T13:01:53.215Z,20416
2019-02-23T13:02:54.634Z,17408
2019-02-23T13:03:55.109Z,15552
2019-02-23T13:04:55.814Z,14944
2019-02-23T13:05:56.231Z,13436
2019-02-23T13:06:56.653Z,12920
2019-02-23T13:07:57.353Z,14112
2019-02-23T13:08:58.458Z,13740
2019-02-23T13:09:58.877Z,12416
2019-02-23T13:10:59.311Z,12660
2019-02-23T13:12:00.015Z,13028
2019-02-23T13:13:00.436Z,13476
2019-02-23T13:14:00.863Z,13700
2019-02-23T13:15:02.297Z,13720
2019-02-23T13:16:02.722Z,13656
2019-02-23T13:17:03.419Z,13408
2019-02-23T13:18:05.119Z,13140
2019-02-23T13:19:05.235Z,13328
2019-02-23T13:20:05.378Z,13676
2019-02-23T13:21:06.526Z,14912
2019-02-23T13:22:07.225Z,16000
2019-02-23T13:23:08.648Z,16416
2019-02-23T13:24:09.066Z,16736
2019-02-23T13:25:09.787Z,16192
2019-02-23T13:26:11.039Z,15904
2019-02-23T13:27:11.752Z,16352
2019-02-23T13:28:12.495Z,17088
2019-02-23T13:29:13.176Z,16832
2019-02-23T13:30:14.150Z,16320
2019-02-23T13:31:17.163Z,14944
2019-02-23T13:32:16.921Z,15168
2019-02-23T13:33:17.902Z,15392
2019-02-23T13:34:18.885Z,14020
2019-02-23T13:35:19.321Z,13112
2019-02-23T13:36:21.574Z,11640
2019-02-23T13:37:21.834Z,11064
2019-02-23T13:38:21.978Z,10624
2019-02-23T13:39:22.808Z,10540
2019-02-23T13:40:23.574Z,10804
2019-02-23T13:41:23.993Z,10700
2019-02-23T13:42:25.247Z,10684
2019-02-23T13:43:26.223Z,10708
2019-02-23T13:44:26.650Z,10448
2019-02-23T13:45:27.345Z,10064
2019-02-23T13:46:28.043Z,10312
2019-02-23T13:47:29.022Z,10352
2019-02-23T13:48:30.003Z,10412
2019-02-23T13:49:31.117Z,10836
2019-02-23T13:50:31.824Z,11292
2019-02-23T13:51:32.525Z,12068
2019-02-23T13:52:33.501Z,13116
2019-02-23T13:53:33.195Z,14464
2019-02-23T13:54:40.462Z,14560
2019-02-23T13:54:47.987Z,14624
2019-02-23T13:55:49.179Z,14784
2019-02-23T13:56:50.159Z,14720
2019-02-23T13:57:50.303Z,15008
2019-02-23T13:58:51.001Z,15136
2019-02-23T13:59:51.405Z,14360
2019-02-23T14:00:51.828Z,13928
2019-02-23T14:01:52.249Z,13748
2019-02-23T14:02:53.228Z,13224
2019-02-23T14:03:53.937Z,12628